ETNH

Hohn Airport

Germany
METAR ETNH 231520Z 09010KT 9999 SCT200 01/M07 Q1028 BLU+
Observed Flight Rules
Feb-23 @ 15:20 UTC (an hour ago) Visual Flight Rules
Wind Visibility Clouds
90° at 10 knots 10,000+ meters
  • Scattered at 20,000' AGL
Temperatures Readings
Current 1°C / 34°F
Dewpoint -7°C / 19°F
Humidity 56%
Altimeter 30.35" Hg
Pressure 1028 hPa
Elevation 17
METAR ETNH 231520Z 09010KT 9999 SCT200 01/M07 Q1028 BLU+
Observed Flight Rules
Feb-23 @ 15:20 UTC
(an hour ago)
VFR
Wind Visibility
90° at 10 knots 10,000+ meters
Clouds
  • Scattered at 20,000' AGL
Temperature Dewpoint
1°C / 34°F -7°C / 19°F
Humidity Altimeter Pressure
56% 30.35" Hg 1028 hPa